Terminal Aerodrome Forecast
Issued by NWS Charleston, WV

Current Version | Previous Version | Graphics & Text | Print | Product List | Glossary On
Versions: 1 2 3 4 5 6 7 8 9 10 11 12 13 14 15 16 17 18 19 20 21 22 23
248
FTUS41 KRLX 021130
TAFCRW
TAF
KCRW 021130Z 0212/0312 22006KT P6SM BKN025 BKN050
     FM021700 23008KT P6SM BKN035
     FM022200 24008KT P6SM -SHRA VCTS OVC050CB
     FM030600 VRB03KT 4SM BR OVC008=

USA.gov is the U.S. government's official web portal to all federal, state and local government web resources and services.